sensor_id;sensor_type;location;lat;lon;timestamp;pressure;altitude;pressure_sealevel;temperature;humidity
43703;BME280;29304;56.146;40.396;2022-08-30T00:00:14;98900.00;;;21.26;100.00
43703;BME280;29304;56.146;40.396;2022-08-30T00:00:49;98900.84;;;21.18;100.00
43703;BME280;29304;56.146;40.396;2022-08-30T00:01:24;98896.84;;;21.22;100.00
43703;BME280;29304;56.146;40.396;2022-08-30T00:01:35;98888.03;;;21.22;100.00
43703;BME280;29304;56.146;40.396;2022-08-30T00:01:45;98889.22;;;21.27;100.00
43703;BME280;29304;56.146;40.396;2022-08-30T00:01:56;98902.66;;;21.26;100.00
43703;BME280;29304;56.146;40.396;2022-08-30T00:02:06;98899.66;;;21.21;100.00
43703;BME280;29304;56.146;40.396;2022-08-30T00:02:17;98897.69;;;21.14;100.00
43703;BME280;29304;56.146;40.396;2022-08-30T00:02:28;98900.84;;;21.18;100.00
43703;BME280;29304;56.146;40.396;2022-08-30T00:02:38;98889.88;;;21.13;100.00
43703;BME280;29304;56.146;40.396;2022-08-30T00:02:48;98903.16;;;21.21;100.00
43703;BME280;29304;56.146;40.396;2022-08-30T00:02:59;98894.34;;;21.21;100.00
43703;BME280;29304;56.146;40.396;2022-08-30T00:03:11;98894.88;;;21.08;100.00
43703;BME280;29304;56.146;40.396;2022-08-30T00:03:23;98899.03;;;21.19;100.00
43703;BME280;29304;56.146;40.396;2022-08-30T00:03:39;98903.81;;;21.15;100.00
43703;BME280;29304;56.146;40.396;2022-08-30T00:03:51;98903.34;;;21.11;100.00
43703;BME280;29304;56.146;40.396;2022-08-30T00:04:03;98897.19;;;21.11;100.00
43703;BME280;29304;56.146;40.396;2022-08-30T00:04:16;98901.84;;;21.17;100.00
43703;BME280;29304;56.146;40.396;2022-08-30T00:04:26;98898.38;;;21.17;100.00
43703;BME280;29304;56.146;40.396;2022-08-30T00:04:37;98898.84;;;21.20;100.00
43703;BME280;29304;56.146;40.396;2022-08-30T00:04:48;98889.41;;;21.09;100.00
43703;BME280;29304;56.146;40.396;2022-08-30T00:04:58;98906.34;;;21.17;100.00
43703;BME280;29304;56.146;40.396;2022-08-30T00:05:10;98907.31;;;21.15;100.00
43703;BME280;29304;56.146;40.396;2022-08-30T00:05:22;98904.66;;;21.07;100.00
43703;BME280;29304;56.146;40.396;2022-08-30T00:05:33;98905.81;;;21.05;100.00
43703;BME280;29304;56.146;40.396;2022-08-30T00:05:44;98892.06;;;20.93;100.00
43703;BME280;29304;56.146;40.396;2022-08-30T00:05:55;98897.03;;;20.96;100.00
43703;BME280;29304;56.146;40.396;2022-08-30T00:06:07;98899.03;;;21.02;100.00
43703;BME280;29304;56.146;40.396;2022-08-30T00:06:18;98880.09;;;20.89;100.00
43703;BME280;29304;56.146;40.396;2022-08-30T00:06:30;98895.69;;;20.92;100.00
43703;BME280;29304;56.146;40.396;2022-08-30T00:06:40;98905.31;;;20.93;100.00
43703;BME280;29304;56.146;40.396;2022-08-30T00:06:51;98904.66;;;20.91;100.00
43703;BME280;29304;56.146;40.396;2022-08-30T00:07:01;98899.34;;;20.91;100.00
43703;BME280;29304;56.146;40.396;2022-08-30T00:07:13;98902.34;;;20.88;100.00
43703;BME280;29304;56.146;40.396;2022-08-30T00:07:23;98904.97;;;20.88;100.00
43703;BME280;29304;56.146;40.396;2022-08-30T00:07:34;98904.00;;;20.89;100.00
43703;BME280;29304;56.146;40.396;2022-08-30T00:07:45;98901.69;;;20.94;100.00
43703;BME280;29304;56.146;40.396;2022-08-30T00:07:57;98903.66;;;20.92;100.00
43703;BME280;29304;56.146;40.396;2022-08-30T00:08:07;98905.31;;;20.93;100.00
43703;BME280;29304;56.146;40.396;2022-08-30T00:08:18;98900.69;;;20.95;100.00
43703;BME280;29304;56.146;40.396;2022-08-30T00:08:28;98894.69;;;20.93;100.00
43703;BME280;29304;56.146;40.396;2022-08-30T00:08:41;98895.03;;;20.98;100.00
43703;BME280;29304;56.146;40.396;2022-08-30T00:08:51;98897.03;;;20.96;100.00
43703;BME280;29304;56.146;40.396;2022-08-30T00:09:02;98896.69;;;20.99;100.00
43703;BME280;29304;56.146;40.396;2022-08-30T00:09:12;98889.22;;;20.94;100.00
43703;BME280;29304;56.146;40.396;2022-08-30T00:09:23;98896.84;;;20.97;100.00
43703;BME280;29304;56.146;40.396;2022-08-30T00:09:33;98895.84;;;20.98;100.00
43703;BME280;29304;56.146;40.396;2022-08-30T00:09:44;98901.00;;;20.92;100.00
43703;BME280;29304;56.146;40.396;2022-08-30T00:09:54;98900.50;;;20.88;100.00
43703;BME280;29304;56.146;40.396;2022-08-30T00:10:05;98893.69;;;20.85;100.00
43703;BME280;29304;56.146;40.396;2022-08-30T00:10:16;98888.72;;;20.91;100.00
43703;BME280;29304;56.146;40.396;2022-08-30T00:10:27;98896.69;;;20.91;100.00
43703;BME280;29304;56.146;40.396;2022-08-30T00:10:39;98896.84;;;20.89;100.00
43703;BME280;29304;56.146;40.396;2022-08-30T00:10:50;98896.19;;;20.87;100.00
43703;BME280;29304;56.146;40.396;2022-08-30T00:11:01;98900.34;;;20.90;100.00
43703;BME280;29304;56.146;40.396;2022-08-30T00:11:13;98898.69;;;20.97;100.00
43703;BME280;29304;56.146;40.396;2022-08-30T00:11:26;98886.41;;;20.88;100.00
43703;BME280;29304;56.146;40.396;2022-08-30T00:11:37;98901.34;;;20.89;100.00
43703;BME280;29304;56.146;40.396;2022-08-30T00:11:47;98907.31;;;20.91;100.00
43703;BME280;29304;56.146;40.396;2022-08-30T00:11:59;98897.03;;;20.96;100.00
43703;BME280;29304;56.146;40.396;2022-08-30T00:12:10;98883.75;;;20.88;100.00
43703;BME280;29304;56.146;40.396;2022-08-30T00:12:20;98895.69;;;20.92;100.00
43703;BME280;29304;56.146;40.396;2022-08-30T00:12:31;98897.84;;;20.88;100.00
43703;BME280;29304;56.146;40.396;2022-08-30T00:12:42;98894.69;;;20.84;100.00
43703;BME280;29304;56.146;40.396;2022-08-30T00:12:52;98892.56;;;20.80;100.00
43703;BME280;29304;56.146;40.396;2022-08-30T00:13:04;98893.22;;;20.82;100.00
43703;BME280;29304;56.146;40.396;2022-08-30T00:13:16;98901.47;;;20.87;100.00
43703;BME280;29304;56.146;40.396;2022-08-30T00:13:28;98891.38;;;20.91;100.00
43703;BME280;29304;56.146;40.396;2022-08-30T00:13:41;98890.06;;;20.95;100.00
43703;BME280;29304;56.146;40.396;2022-08-30T00:13:53;98890.06;;;20.95;100.00
43703;BME280;29304;56.146;40.396;2022-08-30T00:14:04;98887.06;;;20.90;100.00
43703;BME280;29304;56.146;40.396;2022-08-30T00:14:16;98887.41;;;20.95;100.00
43703;BME280;29304;56.146;40.396;2022-08-30T00:14:26;98886.41;;;20.96;100.00
43703;BME280;29304;56.146;40.396;2022-08-30T00:14:37;98892.88;;;20.93;100.00
43703;BME280;29304;56.146;40.396;2022-08-30T00:14:47;98887.06;;;20.90;100.00
43703;BME280;29304;56.146;40.396;2022-08-30T00:14:58;98887.56;;;20.93;100.00
43703;BME280;29304;56.146;40.396;2022-08-30T00:15:10;98888.06;;;20.97;100.00
43703;BME280;29304;56.146;40.396;2022-08-30T00:15:21;98886.41;;;20.96;100.00
43703;BME280;29304;56.146;40.396;2022-08-30T00:15:32;98889.41;;;21.01;100.00
43703;BME280;29304;56.146;40.396;2022-08-30T00:15:44;98879.44;;;20.95;100.00
43703;BME280;29304;56.146;40.396;2022-08-30T00:15:56;98890.06;;;21.03;100.00
43703;BME280;29304;56.146;40.396;2022-08-30T00:16:06;98873.81;;;20.98;100.00
43703;BME280;29304;56.146;40.396;2022-08-30T00:16:19;98888.41;;;21.02;100.00
43703;BME280;29304;56.146;40.396;2022-08-30T00:16:30;98888.56;;;21.00;100.00
43703;BME280;29304;56.146;40.396;2022-08-30T00:16:40;98885.41;;;20.97;100.00
43703;BME280;29304;56.146;40.396;2022-08-30T00:16:50;98881.91;;;20.96;100.00
43703;BME280;29304;56.146;40.396;2022-08-30T00:17:01;98888.56;;;21.00;100.00
43703;BME280;29304;56.146;40.396;2022-08-30T00:17:11;98872.31;;;20.95;100.00
43703;BME280;29304;56.146;40.396;2022-08-30T00:17:22;98879.78;;;21.00;100.00
43703;BME280;29304;56.146;40.396;2022-08-30T00:17:32;98879.44;;;21.03;100.00
43703;BME280;29304;56.146;40.396;2022-08-30T00:17:43;98887.75;;;21.08;100.00
43703;BME280;29304;56.146;40.396;2022-08-30T00:17:53;98877.94;;;21.00;100.00
43703;BME280;29304;56.146;40.396;2022-08-30T00:18:04;98882.59;;;21.07;100.00
43703;BME280;29304;56.146;40.396;2022-08-30T00:18:16;98890.56;;;21.07;100.00
43703;BME280;29304;56.146;40.396;2022-08-30T00:18:27;98882.09;;;21.03;100.00
43703;BME280;29304;56.146;40.396;2022-08-30T00:18:38;98882.59;;;21.07;100.00
43703;BME280;29304;56.146;40.396;2022-08-30T00:18:49;98883.75;;;21.04;100.00
43703;BME280;29304;56.146;40.396;2022-08-30T00:19:00;98886.56;;;21.03;100.00
43703;BME280;29304;56.146;40.396;2022-08-30T00:19:11;98887.56;;;21.01;100.00
43703;BME280;29304;56.146;40.396;2022-08-30T00:19:21;98886.09;;;20.99;100.00
43703;BME280;29304;56.146;40.396;2022-08-30T00:19:32;98876.78;;;20.95;100.00
43703;BME280;29304;56.146;40.396;2022-08-30T00:19:42;98883.91;;;20.94;100.00
43703;BME280;29304;56.146;40.396;2022-08-30T00:19:53;98894.03;;;20.99;100.00
43703;BME280;29304;56.146;40.396;2022-08-30T00:20:08;98889.72;;;20.98;100.00
43703;BME280;29304;56.146;40.396;2022-08-30T00:20:23;98885.09;;;21.00;100.00
43703;BME280;29304;56.146;40.396;2022-08-30T00:20:35;98874.47;;;20.92;100.00
43703;BME280;29304;56.146;40.396;2022-08-30T00:20:47;98881.09;;;20.96;100.00
43703;BME280;29304;56.146;40.396;2022-08-30T00:20:59;98880.25;;;20.87;100.00
43703;BME280;29304;56.146;40.396;2022-08-30T00:21:09;98894.84;;;20.91;100.00
43703;BME280;29304;56.146;40.396;2022-08-30T00:21:20;98885.75;;;20.94;100.00
43703;BME280;29304;56.146;40.396;2022-08-30T00:21:31;98885.56;;;20.95;100.00
43703;BME280;29304;56.146;40.396;2022-08-30T00:21:42;98869.81;;;20.85;100.00
43703;BME280;29304;56.146;40.396;2022-08-30T00:21:52;98887.06;;;20.90;100.00
43703;BME280;29304;56.146;40.396;2022-08-30T00:22:04;98883.41;;;20.91;100.00
43703;BME280;29304;56.146;40.396;2022-08-30T00:22:15;98890.06;;;20.86;100.00
43703;BME280;29304;56.146;40.396;2022-08-30T00:22:25;98876.09;;;20.76;100.00
43703;BME280;29304;56.146;40.396;2022-08-30T00:22:36;98890.72;;;20.89;100.00
43703;BME280;29304;56.146;40.396;2022-08-30T00:22:46;98882.25;;;20.93;100.00
43703;BME280;29304;56.146;40.396;2022-08-30T00:22:59;98881.44;;;20.93;100.00
43703;BME280;29304;56.146;40.396;2022-08-30T00:23:10;98884.09;;;20.93;100.00
43703;BME280;29304;56.146;40.396;2022-08-30T00:23:21;98887.41;;;20.95;100.00
43703;BME280;29304;56.146;40.396;2022-08-30T00:23:31;98888.06;;;20.97;100.00
43703;BME280;29304;56.146;40.396;2022-08-30T00:23:42;98887.75;;;21.00;100.00
43703;BME280;29304;56.146;40.396;2022-08-30T00:23:53;98885.75;;;21.02;100.00
43703;BME280;29304;56.146;40.396;2022-08-30T00:24:03;98887.41;;;21.03;100.00
43703;BME280;29304;56.146;40.396;2022-08-30T00:24:14;98889.06;;;21.04;100.00
43703;BME280;29304;56.146;40.396;2022-08-30T00:24:24;98896.69;;;20.99;100.00
43703;BME280;29304;56.146;40.396;2022-08-30T00:24:35;98892.19;;;20.91;100.00
43703;BME280;29304;56.146;40.396;2022-08-30T00:24:46;98894.38;;;20.88;100.00
43703;BME280;29304;56.146;40.396;2022-08-30T00:24:56;98887.41;;;20.86;100.00
43703;BME280;29304;56.146;40.396;2022-08-30T00:25:07;98891.03;;;20.85;100.00
43703;BME280;29304;56.146;40.396;2022-08-30T00:25:18;98896.03;;;20.89;100.00
43703;BME280;29304;56.146;40.396;2022-08-30T00:25:29;98883.41;;;20.82;100.00
43703;BME280;29304;56.146;40.396;2022-08-30T00:25:40;98889.06;;;20.88;100.00
43703;BME280;29304;56.146;40.396;2022-08-30T00:25:51;98889.72;;;20.90;100.00
43703;BME280;29304;56.146;40.396;2022-08-30T00:26:02;98891.72;;;20.88;100.00
43703;BME280;29304;56.146;40.396;2022-08-30T00:26:12;98885.56;;;20.87;100.00
43703;BME280;29304;56.146;40.396;2022-08-30T00:26:23;98876.25;;;20.75;100.00
43703;BME280;29304;56.146;40.396;2022-08-30T00:26:33;98873.44;;;20.76;100.00
43703;BME280;29304;56.146;40.396;2022-08-30T00:26:44;98887.91;;;20.82;100.00
43703;BME280;29304;56.146;40.396;2022-08-30T00:26:54;98882.28;;;20.85;100.00
43703;BME280;29304;56.146;40.396;2022-08-30T00:27:05;98879.94;;;20.82;100.00
43703;BME280;29304;56.146;40.396;2022-08-30T00:27:15;98887.72;;;20.83;100.00
43703;BME280;29304;56.146;40.396;2022-08-30T00:27:27;98890.22;;;20.85;100.00
43703;BME280;29304;56.146;40.396;2022-08-30T00:27:38;98883.94;;;20.86;100.00
43703;BME280;29304;56.146;40.396;2022-08-30T00:27:48;98869.13;;;20.75;100.00
43703;BME280;29304;56.146;40.396;2022-08-30T00:27:59;98882.59;;;20.82;100.00
43703;BME280;29304;56.146;40.396;2022-08-30T00:28:10;98888.25;;;20.79;100.00
43703;BME280;29304;56.146;40.396;2022-08-30T00:28:21;98885.88;;;20.76;100.00
43703;BME280;29304;56.146;40.396;2022-08-30T00:28:31;98883.06;;;20.77;100.00
43703;BME280;29304;56.146;40.396;2022-08-30T00:28:43;98881.94;;;20.80;100.00
43703;BME280;29304;56.146;40.396;2022-08-30T00:28:53;98879.06;;;20.73;100.00
43703;BME280;29304;56.146;40.396;2022-08-30T00:29:04;98866.31;;;20.68;100.00
43703;BME280;29304;56.146;40.396;2022-08-30T00:29:14;98877.06;;;20.75;100.00
43703;BME280;29304;56.146;40.396;2022-08-30T00:29:25;98879.44;;;20.78;100.00
43703;BME280;29304;56.146;40.396;2022-08-30T00:29:35;98876.94;;;20.77;100.00
43703;BME280;29304;56.146;40.396;2022-08-30T00:29:45;98876.41;;;20.73;100.00
43703;BME280;29304;56.146;40.396;2022-08-30T00:29:56;98873.41;;;20.68;100.00
43703;BME280;29304;56.146;40.396;2022-08-30T00:30:08;98879.72;;;20.67;100.00
43703;BME280;29304;56.146;40.396;2022-08-30T00:30:19;98882.38;;;20.67;100.00
43703;BME280;29304;56.146;40.396;2022-08-30T00:30:30;98883.38;;;20.74;100.00
43703;BME280;29304;56.146;40.396;2022-08-30T00:30:40;98874.59;;;20.65;100.00
43703;BME280;29304;56.146;40.396;2022-08-30T00:30:51;98883.22;;;20.67;100.00
43703;BME280;29304;56.146;40.396;2022-08-30T00:31:02;98880.03;;;20.64;100.00
43703;BME280;29304;56.146;40.396;2022-08-30T00:31:12;98885.88;;;20.67;100.00
43703;BME280;29304;56.146;40.396;2022-08-30T00:31:23;98877.38;;;20.64;100.00
43703;BME280;29304;56.146;40.396;2022-08-30T00:31:33;98879.38;;;20.62;100.00
43703;BME280;29304;56.146;40.396;2022-08-30T00:31:43;98879.56;;;20.60;100.00
43703;BME280;29304;56.146;40.396;2022-08-30T00:31:54;98873.75;;;20.65;100.00
43703;BME280;29304;56.146;40.396;2022-08-30T00:32:04;98869.94;;;20.67;100.00
43703;BME280;29304;56.146;40.396;2022-08-30T00:32:15;98870.75;;;20.60;100.00
43703;BME280;29304;56.146;40.396;2022-08-30T00:32:25;98876.38;;;20.56;100.00
43703;BME280;29304;56.146;40.396;2022-08-30T00:32:36;98856.84;;;20.49;100.00
43703;BME280;29304;56.146;40.396;2022-08-30T00:32:47;98874.72;;;20.55;100.00
43703;BME280;29304;56.146;40.396;2022-08-30T00:32:57;98875.72;;;20.46;100.00
43703;BME280;29304;56.146;40.396;2022-08-30T00:33:09;98881.34;;;20.43;100.00
43703;BME280;29304;56.146;40.396;2022-08-30T00:33:20;98876.19;;;20.41;100.00
43703;BME280;29304;56.146;40.396;2022-08-30T00:33:31;98884.16;;;20.41;100.00
43703;BME280;29304;56.146;40.396;2022-08-30T00:33:41;98880.34;;;20.44;100.00
43703;BME280;29304;56.146;40.396;2022-08-30T00:33:52;98881.34;;;20.43;100.00
43703;BME280;29304;56.146;40.396;2022-08-30T00:34:02;98876.53;;;20.47;100.00
43703;BME280;29304;56.146;40.396;2022-08-30T00:34:12;98874.72;;;20.47;100.00
43703;BME280;29304;56.146;40.396;2022-08-30T00:34:23;98880.84;;;20.48;100.00
43703;BME280;29304;56.146;40.396;2022-08-30T00:34:33;98868.25;;;20.41;100.00
43703;BME280;29304;56.146;40.396;2022-08-30T00:34:44;98877.03;;;20.42;100.00
43703;BME280;29304;56.146;40.396;2022-08-30T00:34:54;98871.72;;;20.42;100.00
43703;BME280;29304;56.146;40.396;2022-08-30T00:35:06;98874.84;;;20.37;100.00
43703;BME280;29304;56.146;40.396;2022-08-30T00:35:17;98876.84;;;20.44;100.00
43703;BME280;29304;56.146;40.396;2022-08-30T00:35:29;98867.75;;;20.38;100.00
43703;BME280;29304;56.146;40.396;2022-08-30T00:35:41;98873.72;;;20.40;100.00
43703;BME280;29304;56.146;40.396;2022-08-30T00:35:52;98875.84;;;20.36;100.00
43703;BME280;29304;56.146;40.396;2022-08-30T00:36:03;98883.81;;;20.36;100.00
43703;BME280;29304;56.146;40.396;2022-08-30T00:36:14;98873.84;;;20.30;100.00
43703;BME280;29304;56.146;40.396;2022-08-30T00:36:25;98872.19;;;20.29;100.00
43703;BME280;29304;56.146;40.396;2022-08-30T00:36:35;98864.53;;;20.26;100.00
43703;BME280;29304;56.146;40.396;2022-08-30T00:36:46;98868.53;;;20.30;100.00
43703;BME280;29304;56.146;40.396;2022-08-30T00:36:57;98858.28;;;20.35;100.00
43703;BME280;29304;56.146;40.396;2022-08-30T00:37:08;98864.56;;;20.34;100.00
43703;BME280;29304;56.146;40.396;2022-08-30T00:37:19;98872.69;;;20.33;100.00
43703;BME280;29304;56.146;40.396;2022-08-30T00:37:30;98868.41;;;20.32;100.00
43703;BME280;29304;56.146;40.396;2022-08-30T00:37:41;98866.41;;;20.34;100.00
43703;BME280;29304;56.146;40.396;2022-08-30T00:37:52;98864.25;;;20.37;100.00
43703;BME280;29304;56.146;40.396;2022-08-30T00:38:02;98870.41;;;20.38;100.00
43703;BME280;29304;56.146;40.396;2022-08-30T00:38:13;98858.91;;;20.29;100.00
43703;BME280;29304;56.146;40.396;2022-08-30T00:38:23;98868.06;;;20.35;100.00
43703;BME280;29304;56.146;40.396;2022-08-30T00:38:34;98864.25;;;20.37;100.00
43703;BME280;29304;56.146;40.396;2022-08-30T00:38:44;98870.88;;;20.41;100.00
43703;BME280;29304;56.146;40.396;2022-08-30T00:38:55;98860.94;;;20.44;100.00
43703;BME280;29304;56.146;40.396;2022-08-30T00:39:05;98868.56;;;20.38;100.00
43703;BME280;29304;56.146;40.396;2022-08-30T00:39:15;98856.13;;;20.31;100.00
43703;BME280;29304;56.146;40.396;2022-08-30T00:39:26;98867.41;;;20.41;100.00
43703;BME280;29304;56.146;40.396;2022-08-30T00:39:36;98852.50;;;20.40;100.00
43703;BME280;29304;56.146;40.396;2022-08-30T00:39:47;98859.78;;;20.38;100.00
43703;BME280;29304;56.146;40.396;2022-08-30T00:39:58;98862.13;;;20.41;100.00
43703;BME280;29304;56.146;40.396;2022-08-30T00:40:09;98858.47;;;20.34;100.00
43703;BME280;29304;56.146;40.396;2022-08-30T00:40:21;98861.91;;;20.34;100.00
43703;BME280;29304;56.146;40.396;2022-08-30T00:40:33;98865.22;;;20.28;100.00
43703;BME280;29304;56.146;40.396;2022-08-30T00:40:44;98860.59;;;20.30;100.00
43703;BME280;29304;56.146;40.396;2022-08-30T00:40:55;98860.91;;;20.27;100.00
43703;BME280;29304;56.146;40.396;2022-08-30T00:41:05;98862.06;;;20.24;100.00
43703;BME280;29304;56.146;40.396;2022-08-30T00:41:16;98873.00;;;20.21;100.00
43703;BME280;29304;56.146;40.396;2022-08-30T00:41:26;98853.44;;;20.14;100.00
43703;BME280;29304;56.146;40.396;2022-08-30T00:41:37;98850.78;;;20.14;100.00
43703;BME280;29304;56.146;40.396;2022-08-30T00:41:48;98868.38;;;20.23;100.00
43703;BME280;29304;56.146;40.396;2022-08-30T00:41:58;98867.69;;;20.21;100.00
43703;BME280;29304;56.146;40.396;2022-08-30T00:42:09;98860.25;;;20.17;100.00
43703;BME280;29304;56.146;40.396;2022-08-30T00:42:20;98864.72;;;20.24;100.00
43703;BME280;29304;56.146;40.396;2022-08-30T00:42:31;98861.09;;;20.25;100.00
43703;BME280;29304;56.146;40.396;2022-08-30T00:42:43;98850.63;;;20.16;100.00
43703;BME280;29304;56.146;40.396;2022-08-30T00:42:56;98856.78;;;20.24;100.00
43703;BME280;29304;56.146;40.396;2022-08-30T00:43:12;98856.44;;;20.19;100.00
43703;BME280;29304;56.146;40.396;2022-08-30T00:43:27;98863.03;;;20.15;100.00
43703;BME280;29304;56.146;40.396;2022-08-30T00:43:38;98865.00;;;20.13;100.00
43703;BME280;29304;56.146;40.396;2022-08-30T00:43:48;98865.00;;;20.13;100.00
43703;BME280;29304;56.146;40.396;2022-08-30T00:43:58;98866.53;;;20.16;100.00
43703;BME280;29304;56.146;40.396;2022-08-30T00:44:09;98854.09;;;20.16;100.00
43703;BME280;29304;56.146;40.396;2022-08-30T00:44:20;98865.38;;;20.18;100.00
43703;BME280;29304;56.146;40.396;2022-08-30T00:44:30;98860.25;;;20.17;100.00
43703;BME280;29304;56.146;40.396;2022-08-30T00:44:41;98863.03;;;20.15;100.00
43703;BME280;29304;56.146;40.396;2022-08-30T00:44:52;98866.03;;;20.20;100.00
43703;BME280;29304;56.146;40.396;2022-08-30T00:45:23;98863.22;;;20.14;100.00
43703;BME280;29304;56.146;40.396;2022-08-30T00:45:36;98861.56;;;20.12;100.00
43703;BME280;29304;56.146;40.396;2022-08-30T00:45:47;98860.03;;;20.10;100.00
43703;BME280;29304;56.146;40.396;2022-08-30T00:45:57;98862.34;;;20.05;100.00
43703;BME280;29304;56.146;40.396;2022-08-30T00:46:08;98862.34;;;20.05;100.00
43703;BME280;29304;56.146;40.396;2022-08-30T00:46:19;98863.00;;;20.07;100.00
43703;BME280;29304;56.146;40.396;2022-08-30T00:46:30;98858.69;;;20.06;100.00
43703;BME280;29304;56.146;40.396;2022-08-30T00:46:41;98863.00;;;20.07;100.00
43703;BME280;29304;56.146;40.396;2022-08-30T00:46:51;98862.00;;;20.08;100.00
43703;BME280;29304;56.146;40.396;2022-08-30T00:47:02;98861.53;;;20.04;100.00
43703;BME280;29304;56.146;40.396;2022-08-30T00:47:12;98858.66;;;19.97;100.00
43703;BME280;29304;56.146;40.396;2022-08-30T00:47:23;98849.78;;;19.80;100.00
43703;BME280;29304;56.146;40.396;2022-08-30T00:47:33;98858.31;;;19.92;100.00
43703;BME280;29304;56.146;40.396;2022-08-30T00:47:44;98859.66;;;19.96;100.00
43703;BME280;29304;56.146;40.396;2022-08-30T00:47:55;98860.81;;;19.94;100.00
43703;BME280;29304;56.146;40.396;2022-08-30T00:48:05;98860.97;;;19.92;100.00
43703;BME280;29304;56.146;40.396;2022-08-30T00:48:17;98861.94;;;19.91;100.00
43703;BME280;29304;56.146;40.396;2022-08-30T00:48:27;98850.69;;;19.89;100.00
43703;BME280;29304;56.146;40.396;2022-08-30T00:48:42;98860.50;;;19.97;100.00
43703;BME280;29304;56.146;40.396;2022-08-30T00:48:56;98861.63;;;19.94;100.00
43703;BME280;29304;56.146;40.396;2022-08-30T00:49:08;98864.28;;;19.94;100.00
43703;BME280;29304;56.146;40.396;2022-08-30T00:49:20;98862.97;;;19.98;100.00
43703;BME280;29304;56.146;40.396;2022-08-30T00:49:32;98857.53;;;20.00;100.00
43703;BME280;29304;56.146;40.396;2022-08-30T00:49:45;98861.84;;;20.01;100.00
43703;BME280;29304;56.146;40.396;2022-08-30T00:49:57;98853.03;;;20.01;100.00
43703;BME280;29304;56.146;40.396;2022-08-30T00:50:08;98850.72;;;19.97;100.00
43703;BME280;29304;56.146;40.396;2022-08-30T00:50:22;98847.22;;;19.89;100.00
43703;BME280;29304;56.146;40.396;2022-08-30T00:50:39;98857.50;;;19.92;100.00
43703;BME280;29304;56.146;40.396;2022-08-30T00:50:54;98831.25;;;19.80;100.00
43703;BME280;29304;56.146;40.396;2022-08-30T00:51:07;98856.31;;;19.94;100.00
43703;BME280;29304;56.146;40.396;2022-08-30T00:51:19;98866.13;;;19.94;100.00
43703;BME280;29304;56.146;40.396;2022-08-30T00:51:30;98851.00;;;19.86;100.00
43703;BME280;29304;56.146;40.396;2022-08-30T00:51:42;98853.84;;;19.93;100.00
43703;BME280;29304;56.146;40.396;2022-08-30T00:51:54;98853.31;;;19.89;100.00
43703;BME280;29304;56.146;40.396;2022-08-30T00:52:05;98843.31;;;19.75;100.00
43703;BME280;29304;56.146;40.396;2022-08-30T00:52:17;98851.13;;;19.85;100.00
43703;BME280;29304;56.146;40.396;2022-08-30T00:52:27;98856.13;;;19.88;100.00
43703;BME280;29304;56.146;40.396;2022-08-30T00:52:40;98856.06;;;19.79;100.00
43703;BME280;29304;56.146;40.396;2022-08-30T00:52:53;98857.28;;;19.85;100.00
43703;BME280;29304;56.146;40.396;2022-08-30T00:53:08;98861.91;;;19.83;100.00
43703;BME280;29304;56.146;40.396;2022-08-30T00:53:24;98860.38;;;19.80;100.00
43703;BME280;29304;56.146;40.396;2022-08-30T00:53:38;98857.38;;;19.75;100.00
43703;BME280;29304;56.146;40.396;2022-08-30T00:53:53;98851.28;;;19.75;100.00
43703;BME280;29304;56.146;40.396;2022-08-30T00:54:05;98854.91;;;19.74;100.00
43703;BME280;29304;56.146;40.396;2022-08-30T00:54:17;98857.56;;;19.74;100.00
43703;BME280;29304;56.146;40.396;2022-08-30T00:54:29;98851.41;;;19.73;100.00
43703;BME280;29304;56.146;40.396;2022-08-30T00:54:42;98851.94;;;19.77;100.00
43703;BME280;29304;56.146;40.396;2022-08-30T00:54:54;98854.59;;;19.77;100.00
43703;BME280;29304;56.146;40.396;2022-08-30T00:55:05;98843.41;;;19.65;100.00
43703;BME280;29304;56.146;40.396;2022-08-30T00:55:17;98859.66;;;19.70;100.00
43703;BME280;29304;56.146;40.396;2022-08-30T00:55:28;98839.59;;;19.59;100.00
43703;BME280;29304;56.146;40.396;2022-08-30T00:55:40;98851.38;;;19.65;100.00
43703;BME280;29304;56.146;40.396;2022-08-30T00:55:51;98860.97;;;19.66;100.00
43703;BME280;29304;56.146;40.396;2022-08-30T00:56:03;98857.81;;;19.62;100.00
43703;BME280;29304;56.146;40.396;2022-08-30T00:56:15;98848.69;;;19.57;100.00
43703;BME280;29304;56.146;40.396;2022-08-30T00:56:27;98864.47;;;19.66;100.00
43703;BME280;29304;56.146;40.396;2022-08-30T00:56:38;98852.53;;;19.62;100.00
43703;BME280;29304;56.146;40.396;2022-08-30T00:56:50;98856.66;;;19.65;100.00
43703;BME280;29304;56.146;40.396;2022-08-30T00:57:02;98845.88;;;19.58;100.00
43703;BME280;29304;56.146;40.396;2022-08-30T00:57:13;98859.81;;;19.60;100.00
43703;BME280;29304;56.146;40.396;2022-08-30T00:57:24;98852.66;;;19.61;100.00
43703;BME280;29304;56.146;40.396;2022-08-30T00:57:35;98860.31;;;19.64;100.00
43703;BME280;29304;56.146;40.396;2022-08-30T00:57:47;98862.81;;;19.65;100.00
43703;BME280;29304;56.146;40.396;2022-08-30T00:58:02;98852.22;;;19.65;100.00
43703;BME280;29304;56.146;40.396;2022-08-30T00:58:18;98857.66;;;19.64;100.00
43703;BME280;29304;56.146;40.396;2022-08-30T00:58:34;98859.31;;;19.65;100.00
43703;BME280;29304;56.146;40.396;2022-08-30T00:58:49;98855.00;;;19.64;100.00
43703;BME280;29304;56.146;40.396;2022-08-30T00:59:04;98859.81;;;19.60;100.00
43703;BME280;29304;56.146;40.396;2022-08-30T00:59:15;98858.13;;;19.59;100.00
43703;BME280;29304;56.146;40.396;2022-08-30T00:59:26;98857.28;;;19.59;100.00